Harrisburg, PA (17113)

7:39 AM EST on December 07, 2016 (GMT -0500)
Reesers Summit | | Change Station

Elev 666 ft 40.20 °N, 76.86 °W | Updated 28 seconds ago

Overcast
Overcast
55.0 °F
Feels Like 55.0 °F
N
2.5
Wind Variable Wind from West
Gusts 2.5 mph

Today
High -- | Low -- °F
--% Chance of Precip.
Yesterday
High -- | Low -- °F
Precip. -- in
Pressure 30.00 in
Visibility 6.0 miles
Clouds Mostly Cloudy 600 ft
Overcast 2100 ft
Dew Point 54 °F
Humidity 97%
Rainfall 0.00 in
Snow Depth Not available.
7:16 AM 4:41 PM
First Quarter, 52% visible
METAR KCXY 071156Z 29004KT 6SM BR BKN006 OVC021 04/03 A2999 RMK AO2 RAE00 SLP159 P0000 60000 70064 T00440028 10044 20039 53020
Pressure 30.00 in
Visibility 6.0 miles
Clouds Mostly Cloudy 600 ft
Overcast 2100 ft
Dew Point 54 °F
Humidity 97%
Rainfall 0.00 in
Snow Depth Not available.
7:16 AM 4:41 PM
First Quarter, 52% visible
METAR KCXY 071156Z 29004KT 6SM BR BKN006 OVC021 04/03 A2999 RMK AO2 RAE00 SLP159 P0000 60000 70064 T00440028 10044 20039 53020

10-Day Weather Forecast

Almanac

Astronomy

Dec. 07, 2016 Rise Set
Actual Time
Civil Twilight
Nautical Twilight
Astronomical Twilight
Moon
Length of Visible Light
Length of Day
Tomorrow will be .
, % of the Moon is Illuminated

Today's Extremes

State Highs State Lows

Community

WunderPhotos

Upload Photos

1,956,111 photos uploaded!

WunderBlog® & News

Nearby

Air Quality

  Air Quality AQ Index Pollutant
Not available.

Snow Depth

Station Depth Elevation

Earthquake Activity

City Distance Mag. Time & Date
Minimum magnitude displayed is 2.5.

Coastal Water Temperatures

Place Temperature

Stations

Nearby Weather Stations

Station Location Temp. Windchill Dew Point Humidity Wind Precip. Elev Updated Type
                   

Watches & Warnings

There are currently no watches in effect.